Saint-Charles-Sur-Richelieu, Canada
Current Conditions -  °F | °C
As of 11:00 AM on Saturday 22 Nov 2014 (Local Time) from CYHU Reporting Station
Clear Clear  
Wind Chill: -6°   Ceiling: Unl
Heat Index:   Visibility: 9mi
Dew Point: -8°   Wind: 16mph
Humidity: 55%   Direction: 210°SSW
Pressure: 30.06"   Gusts: NA
Location:  45.68°N, 73.18°W
Report Text: CYHU 221600Z AUTO 21014KT 9SM CLR 00/M08 A3006 RMK SLP180
Loading
Personal Weather Stations






























Interactive Weather Map New forecast layout! Learn more

10-Day Weather Forecast

Advertisements
Track Severe Weather on mobile